sensor_id;sensor_type;location;lat;lon;timestamp;pressure;altitude;pressure_sealevel;temperature;humidity
33404;BME280;19751;40.274;18.268;2023-02-23T00:01:55;101253.03;;;10.73;100.00
33404;BME280;19751;40.274;18.268;2023-02-23T00:04:22;101249.50;;;10.73;100.00
33404;BME280;19751;40.274;18.268;2023-02-23T00:06:47;101243.97;;;10.74;100.00
33404;BME280;19751;40.274;18.268;2023-02-23T00:09:16;101244.13;;;10.73;100.00
33404;BME280;19751;40.274;18.268;2023-02-23T00:11:59;101241.25;;;10.74;100.00
33404;BME280;19751;40.274;18.268;2023-02-23T00:14:31;101243.41;;;10.79;100.00
33404;BME280;19751;40.274;18.268;2023-02-23T00:16:57;101244.75;;;10.83;100.00
33404;BME280;19751;40.274;18.268;2023-02-23T00:19:24;101253.28;;;10.86;100.00
33404;BME280;19751;40.274;18.268;2023-02-23T00:21:49;101242.34;;;10.88;100.00
33404;BME280;19751;40.274;18.268;2023-02-23T00:24:16;101246.50;;;10.90;100.00
33404;BME280;19751;40.274;18.268;2023-02-23T00:26:51;101249.22;;;10.90;100.00
33404;BME280;19751;40.274;18.268;2023-02-23T00:29:19;101240.28;;;10.90;100.00
33404;BME280;19751;40.274;18.268;2023-02-23T00:31:46;101243.19;;;10.88;100.00
33404;BME280;19751;40.274;18.268;2023-02-23T00:34:13;101246.06;;;10.87;100.00
33404;BME280;19751;40.274;18.268;2023-02-23T00:36:41;101238.31;;;10.84;100.00
33404;BME280;19751;40.274;18.268;2023-02-23T00:39:10;101240.88;;;10.77;100.00
33404;BME280;19751;40.274;18.268;2023-02-23T00:41:46;101247.00;;;10.71;100.00
33404;BME280;19751;40.274;18.268;2023-02-23T00:44:12;101241.66;;;10.63;100.00
33404;BME280;19751;40.274;18.268;2023-02-23T00:46:41;101236.31;;;10.55;100.00
33404;BME280;19751;40.274;18.268;2023-02-23T00:49:09;101241.41;;;10.50;100.00
33404;BME280;19751;40.274;18.268;2023-02-23T00:51:35;101240.44;;;10.42;100.00
33404;BME280;19751;40.274;18.268;2023-02-23T00:54:02;101244.19;;;10.33;100.00
33404;BME280;19751;40.274;18.268;2023-02-23T00:56:27;101232.63;;;10.25;100.00
33404;BME280;19751;40.274;18.268;2023-02-23T00:58:54;101227.22;;;10.16;100.00
33404;BME280;19751;40.274;18.268;2023-02-23T01:01:19;101223.38;;;10.11;100.00
33404;BME280;19751;40.274;18.268;2023-02-23T01:03:45;101228.78;;;10.03;100.00
33404;BME280;19751;40.274;18.268;2023-02-23T01:06:13;101229.63;;;9.95;100.00
33404;BME280;19751;40.274;18.268;2023-02-23T01:08:43;101217.22;;;9.86;100.00
33404;BME280;19751;40.274;18.268;2023-02-23T01:11:11;101230.56;;;9.79;100.00
33404;BME280;19751;40.274;18.268;2023-02-23T01:13:38;101226.53;;;9.75;100.00
33404;BME280;19751;40.274;18.268;2023-02-23T01:16:10;101222.13;;;9.74;100.00
33404;BME280;19751;40.274;18.268;2023-02-23T01:18:38;101213.41;;;9.72;100.00
33404;BME280;19751;40.274;18.268;2023-02-23T01:21:04;101213.75;;;9.69;100.00
33404;BME280;19751;40.274;18.268;2023-02-23T01:23:37;101208.72;;;9.66;100.00
33404;BME280;19751;40.274;18.268;2023-02-23T01:26:03;101211.91;;;9.61;100.00
33404;BME280;19751;40.274;18.268;2023-02-23T01:28:28;101213.94;;;9.59;100.00
33404;BME280;19751;40.274;18.268;2023-02-23T01:30:54;101193.59;;;9.57;100.00
33404;BME280;19751;40.274;18.268;2023-02-23T01:33:19;101197.97;;;9.58;100.00
33404;BME280;19751;40.274;18.268;2023-02-23T01:35:56;101197.31;;;9.56;100.00
33404;BME280;19751;40.274;18.268;2023-02-23T01:38:21;101199.31;;;9.54;100.00
33404;BME280;19751;40.274;18.268;2023-02-23T01:40:47;101195.16;;;9.51;100.00
33404;BME280;19751;40.274;18.268;2023-02-23T01:43:17;101198.34;;;9.46;100.00
33404;BME280;19751;40.274;18.268;2023-02-23T01:45:45;101197.00;;;9.42;100.00
33404;BME280;19751;40.274;18.268;2023-02-23T01:48:17;101192.81;;;9.40;100.00
33404;BME280;19751;40.274;18.268;2023-02-23T01:51:05;101194.00;;;9.37;100.00
33404;BME280;19751;40.274;18.268;2023-02-23T01:53:36;101195.00;;;9.36;100.00
33404;BME280;19751;40.274;18.268;2023-02-23T01:56:24;101193.50;;;9.34;100.00
33404;BME280;19751;40.274;18.268;2023-02-23T01:58:54;101197.34;;;9.31;100.00
33404;BME280;19751;40.274;18.268;2023-02-23T02:01:21;101191.16;;;9.31;100.00
33404;BME280;19751;40.274;18.268;2023-02-23T02:03:52;101191.31;;;9.29;100.00
33404;BME280;19751;40.274;18.268;2023-02-23T02:06:20;101187.44;;;9.24;100.00
33404;BME280;19751;40.274;18.268;2023-02-23T02:08:50;101185.28;;;9.19;100.00
33404;BME280;19751;40.274;18.268;2023-02-23T02:11:20;101185.28;;;9.11;100.00
33404;BME280;19751;40.274;18.268;2023-02-23T02:14:00;101190.31;;;9.06;100.00
33404;BME280;19751;40.274;18.268;2023-02-23T02:19:31;101186.81;;;8.97;100.00
33404;BME280;19751;40.274;18.268;2023-02-23T02:39:11;101181.59;;;8.71;100.00
33404;BME280;19751;40.274;18.268;2023-02-23T02:45:05;101179.38;;;8.66;100.00
33404;BME280;19751;40.274;18.268;2023-02-23T02:47:44;101180.25;;;8.67;100.00
33404;BME280;19751;40.274;18.268;2023-02-23T02:50:18;101186.97;;;8.71;100.00
33404;BME280;19751;40.274;18.268;2023-02-23T02:52:52;101178.22;;;8.69;100.00
33404;BME280;19751;40.274;18.268;2023-02-23T02:55:25;101181.91;;;8.68;100.00
33404;BME280;19751;40.274;18.268;2023-02-23T02:57:56;101178.53;;;8.66;100.00
33404;BME280;19751;40.274;18.268;2023-02-23T03:00:30;101178.41;;;8.67;100.00
33404;BME280;19751;40.274;18.268;2023-02-23T03:03:50;101164.47;;;8.64;100.00
33404;BME280;19751;40.274;18.268;2023-02-23T03:06:46;101170.66;;;8.64;100.00
33404;BME280;19751;40.274;18.268;2023-02-23T03:12:43;101170.66;;;8.64;100.00
33404;BME280;19751;40.274;18.268;2023-02-23T03:18:33;101169.97;;;8.62;100.00
33404;BME280;19751;40.274;18.268;2023-02-23T03:21:25;101176.88;;;8.65;100.00
33404;BME280;19751;40.274;18.268;2023-02-23T03:24:24;101164.78;;;8.61;100.00
33404;BME280;19751;40.274;18.268;2023-02-23T03:30:14;101168.16;;;8.63;100.00
33404;BME280;19751;40.274;18.268;2023-02-23T03:33:13;101173.53;;;8.63;100.00
33404;BME280;19751;40.274;18.268;2023-02-23T03:36:05;101171.00;;;8.61;100.00
33404;BME280;19751;40.274;18.268;2023-02-23T03:38:59;101170.84;;;8.63;100.00
33404;BME280;19751;40.274;18.268;2023-02-23T03:41:47;101170.16;;;8.61;100.00
33404;BME280;19751;40.274;18.268;2023-02-23T03:44:36;101165.78;;;8.60;100.00
33404;BME280;19751;40.274;18.268;2023-02-23T03:47:26;101164.44;;;8.56;100.00
33404;BME280;19751;40.274;18.268;2023-02-23T03:50:18;101172.50;;;8.56;100.00
33404;BME280;19751;40.274;18.268;2023-02-23T03:53:06;101165.28;;;8.56;100.00
33404;BME280;19751;40.274;18.268;2023-02-23T03:55:54;101175.34;;;8.54;100.00
33404;BME280;19751;40.274;18.268;2023-02-23T03:58:45;101178.53;;;8.50;100.00
33404;BME280;19751;40.274;18.268;2023-02-23T04:01:31;101180.88;;;8.53;100.00
33404;BME280;19751;40.274;18.268;2023-02-23T04:04:16;101183.56;;;8.53;100.00
33404;BME280;19751;40.274;18.268;2023-02-23T04:07:02;101178.19;;;8.53;100.00
33404;BME280;19751;40.274;18.268;2023-02-23T04:09:49;101184.25;;;8.55;100.00
33404;BME280;19751;40.274;18.268;2023-02-23T04:12:46;101190.28;;;8.57;100.00
33404;BME280;19751;40.274;18.268;2023-02-23T04:15:38;101189.28;;;8.66;100.00
33404;BME280;19751;40.274;18.268;2023-02-23T04:18:06;101188.63;;;8.72;100.00
33404;BME280;19751;40.274;18.268;2023-02-23T04:20:32;101182.94;;;8.75;100.00
33404;BME280;19751;40.274;18.268;2023-02-23T04:22:57;101190.13;;;8.83;100.00
33404;BME280;19751;40.274;18.268;2023-02-23T04:25:23;101187.31;;;8.84;100.00
33404;BME280;19751;40.274;18.268;2023-02-23T04:27:49;101188.97;;;8.77;100.00
33404;BME280;19751;40.274;18.268;2023-02-23T04:30:15;101187.81;;;8.71;100.00
33404;BME280;19751;40.274;18.268;2023-02-23T04:32:41;101189.47;;;8.64;100.00
33404;BME280;19751;40.274;18.268;2023-02-23T04:35:08;101190.09;;;8.58;100.00
33404;BME280;19751;40.274;18.268;2023-02-23T04:37:34;101191.97;;;8.58;100.00
33404;BME280;19751;40.274;18.268;2023-02-23T04:40:00;101185.25;;;8.62;100.00
33404;BME280;19751;40.274;18.268;2023-02-23T04:42:25;101187.28;;;8.60;100.00
33404;BME280;19751;40.274;18.268;2023-02-23T04:44:51;101192.66;;;8.60;100.00
33404;BME280;19751;40.274;18.268;2023-02-23T04:47:16;101194.50;;;8.59;100.00
33404;BME280;19751;40.274;18.268;2023-02-23T04:49:42;101188.44;;;8.57;100.00
33404;BME280;19751;40.274;18.268;2023-02-23T04:52:08;101192.13;;;8.56;100.00
33404;BME280;19751;40.274;18.268;2023-02-23T04:54:38;101185.94;;;8.56;100.00
33404;BME280;19751;40.274;18.268;2023-02-23T04:57:04;101186.44;;;8.59;100.00
33404;BME280;19751;40.274;18.268;2023-02-23T04:59:30;101179.72;;;8.63;100.00
33404;BME280;19751;40.274;18.268;2023-02-23T05:01:56;101183.06;;;8.65;100.00
33404;BME280;19751;40.274;18.268;2023-02-23T05:04:22;101180.72;;;8.70;100.00
33404;BME280;19751;40.274;18.268;2023-02-23T05:06:48;101180.25;;;8.75;100.00
33404;BME280;19751;40.274;18.268;2023-02-23T05:09:13;101187.13;;;8.78;100.00
33404;BME280;19751;40.274;18.268;2023-02-23T05:11:39;101186.97;;;8.79;100.00
33404;BME280;19751;40.274;18.268;2023-02-23T05:14:04;101191.66;;;8.77;100.00
33404;BME280;19751;40.274;18.268;2023-02-23T05:16:30;101186.63;;;8.82;100.00
33404;BME280;19751;40.274;18.268;2023-02-23T05:18:56;101180.91;;;8.85;100.00
33404;BME280;19751;40.274;18.268;2023-02-23T05:21:21;101188.66;;;8.88;100.00
33404;BME280;19751;40.274;18.268;2023-02-23T05:23:47;101182.44;;;8.88;100.00
33404;BME280;19751;40.274;18.268;2023-02-23T05:26:13;101184.25;;;8.87;100.00
33404;BME280;19751;40.274;18.268;2023-02-23T05:28:40;101191.16;;;8.90;100.00
33404;BME280;19751;40.274;18.268;2023-02-23T05:31:06;101191.66;;;8.93;100.00
33404;BME280;19751;40.274;18.268;2023-02-23T05:33:32;101195.00;;;8.95;100.00
33404;BME280;19751;40.274;18.268;2023-02-23T05:35:58;101189.31;;;8.99;100.00
33404;BME280;19751;40.274;18.268;2023-02-23T05:38:25;101192.31;;;9.04;100.00
33404;BME280;19751;40.274;18.268;2023-02-23T05:40:51;101188.66;;;9.05;100.00
33404;BME280;19751;40.274;18.268;2023-02-23T05:43:17;101191.66;;;9.10;100.00
33404;BME280;19751;40.274;18.268;2023-02-23T05:45:43;101193.66;;;9.16;100.00
33404;BME280;19751;40.274;18.268;2023-02-23T05:48:10;101192.81;;;9.24;100.00
33404;BME280;19751;40.274;18.268;2023-02-23T05:50:35;101200.03;;;9.31;100.00
33404;BME280;19751;40.274;18.268;2023-02-23T05:53:01;101203.88;;;9.37;100.00
33404;BME280;19751;40.274;18.268;2023-02-23T05:55:27;101200.34;;;9.44;100.00
33404;BME280;19751;40.274;18.268;2023-02-23T05:57:53;101197.97;;;9.50;100.00
33404;BME280;19751;40.274;18.268;2023-02-23T06:00:18;101206.41;;;9.55;100.00
33404;BME280;19751;40.274;18.268;2023-02-23T06:02:44;101202.34;;;9.59;100.00
33404;BME280;19751;40.274;18.268;2023-02-23T06:05:10;101199.47;;;9.60;100.00
33404;BME280;19751;40.274;18.268;2023-02-23T06:07:37;101212.94;;;9.60;100.00
33404;BME280;19751;40.274;18.268;2023-02-23T06:10:03;101216.47;;;9.61;100.00
33404;BME280;19751;40.274;18.268;2023-02-23T06:12:29;101212.41;;;9.65;100.00
33404;BME280;19751;40.274;18.268;2023-02-23T06:14:54;101213.75;;;9.69;100.00
33404;BME280;19751;40.274;18.268;2023-02-23T06:17:20;101216.09;;;9.72;100.00
33404;BME280;19751;40.274;18.268;2023-02-23T06:19:45;101215.78;;;9.75;100.00
33404;BME280;19751;40.274;18.268;2023-02-23T06:22:10;101223.66;;;9.77;100.00
33404;BME280;19751;40.274;18.268;2023-02-23T06:24:36;101216.28;;;9.79;100.00
33404;BME280;19751;40.274;18.268;2023-02-23T06:27:02;101222.81;;;9.84;100.00
33404;BME280;19751;40.274;18.268;2023-02-23T06:29:28;101226.97;;;9.87;100.00
33404;BME280;19751;40.274;18.268;2023-02-23T06:31:54;101220.41;;;9.89;100.00
33404;BME280;19751;40.274;18.268;2023-02-23T06:34:19;101224.25;;;9.95;100.00
33404;BME280;19751;40.274;18.268;2023-02-23T06:36:44;101232.69;;;10.00;100.00
33404;BME280;19751;40.274;18.268;2023-02-23T06:39:10;101230.63;;;10.02;100.00
33404;BME280;19751;40.274;18.268;2023-02-23T06:41:36;101236.84;;;10.03;100.00
33404;BME280;19751;40.274;18.268;2023-02-23T06:44:02;101244.06;;;10.10;100.00
33404;BME280;19751;40.274;18.268;2023-02-23T06:46:28;101241.69;;;10.15;100.00
33404;BME280;19751;40.274;18.268;2023-02-23T06:48:55;101237.47;;;10.21;100.00
33404;BME280;19751;40.274;18.268;2023-02-23T06:51:20;101242.16;;;10.27;100.00
33404;BME280;19751;40.274;18.268;2023-02-23T06:53:46;101241.66;;;10.32;100.00
33404;BME280;19751;40.274;18.268;2023-02-23T06:56:11;101246.69;;;10.35;100.00
33404;BME280;19751;40.274;18.268;2023-02-23T06:58:39;101244.34;;;10.32;100.00
33404;BME280;19751;40.274;18.268;2023-02-23T07:01:04;101248.34;;;10.36;100.00
33404;BME280;19751;40.274;18.268;2023-02-23T07:03:30;101249.53;;;10.41;100.00
33404;BME280;19751;40.274;18.268;2023-02-23T07:05:56;101253.53;;;10.45;100.00
33404;BME280;19751;40.274;18.268;2023-02-23T07:08:21;101250.13;;;10.52;100.00
33404;BME280;19751;40.274;18.268;2023-02-23T07:10:47;101255.53;;;10.52;100.00
33404;BME280;19751;40.274;18.268;2023-02-23T07:13:13;101258.03;;;10.53;100.00
33404;BME280;19751;40.274;18.268;2023-02-23T07:15:39;101256.19;;;10.54;100.00
33404;BME280;19751;40.274;18.268;2023-02-23T07:18:05;101253.13;;;10.57;100.00
33404;BME280;19751;40.274;18.268;2023-02-23T07:20:31;101253.91;;;10.65;100.00
33404;BME280;19751;40.274;18.268;2023-02-23T07:22:58;101259.63;;;10.70;100.00
33404;BME280;19751;40.274;18.268;2023-02-23T07:25:28;101249.16;;;10.76;100.00
33404;BME280;19751;40.274;18.268;2023-02-23T07:27:54;101252.63;;;10.84;100.00
33404;BME280;19751;40.274;18.268;2023-02-23T07:30:20;101254.59;;;10.90;100.00
33404;BME280;19751;40.274;18.268;2023-02-23T07:32:50;101251.91;;;10.90;100.00
33404;BME280;19751;40.274;18.268;2023-02-23T07:35:15;101255.63;;;10.89;100.00
33404;BME280;19751;40.274;18.268;2023-02-23T07:37:41;101254.25;;;10.93;100.00
33404;BME280;19751;40.274;18.268;2023-02-23T07:40:07;101253.56;;;11.00;100.00
33404;BME280;19751;40.274;18.268;2023-02-23T07:42:33;101258.75;;;11.01;100.00
33404;BME280;19751;40.274;18.268;2023-02-23T07:44:59;101256.72;;;11.03;100.00
33404;BME280;19751;40.274;18.268;2023-02-23T07:47:25;101250.78;;;11.08;100.00
33404;BME280;19751;40.274;18.268;2023-02-23T07:49:56;101259.34;;;11.11;100.00
33404;BME280;19751;40.274;18.268;2023-02-23T07:52:22;101260.50;;;11.17;100.00
33404;BME280;19751;40.274;18.268;2023-02-23T07:54:48;101257.44;;;11.20;100.00
33404;BME280;19751;40.274;18.268;2023-02-23T07:57:13;101258.91;;;11.23;100.00
33404;BME280;19751;40.274;18.268;2023-02-23T07:59:39;101263.13;;;11.25;100.00
33404;BME280;19751;40.274;18.268;2023-02-23T08:02:04;101261.75;;;11.29;100.00
33404;BME280;19751;40.274;18.268;2023-02-23T08:04:30;101265.91;;;11.32;100.00
33404;BME280;19751;40.274;18.268;2023-02-23T08:06:56;101256.44;;;11.36;100.00
33404;BME280;19751;40.274;18.268;2023-02-23T08:09:21;101255.72;;;11.42;100.00
33404;BME280;19751;40.274;18.268;2023-02-23T08:11:47;101260.78;;;11.45;100.00
33404;BME280;19751;40.274;18.268;2023-02-23T08:14:12;101255.81;;;11.49;100.00
33404;BME280;19751;40.274;18.268;2023-02-23T08:16:37;101255.47;;;11.52;100.00
33404;BME280;19751;40.274;18.268;2023-02-23T08:19:03;101254.28;;;11.54;100.00
33404;BME280;19751;40.274;18.268;2023-02-23T08:21:29;101256.22;;;11.60;100.00
33404;BME280;19751;40.274;18.268;2023-02-23T08:23:56;101248.88;;;11.69;100.00
33404;BME280;19751;40.274;18.268;2023-02-23T08:26:21;101250.84;;;11.75;100.00
33404;BME280;19751;40.274;18.268;2023-02-23T08:28:50;101253.50;;;11.83;100.00
33404;BME280;19751;40.274;18.268;2023-02-23T08:31:16;101253.78;;;11.88;100.00
33404;BME280;19751;40.274;18.268;2023-02-23T08:33:43;101244.94;;;11.94;100.00
33404;BME280;19751;40.274;18.268;2023-02-23T08:36:08;101248.09;;;11.98;100.00
33404;BME280;19751;40.274;18.268;2023-02-23T08:38:34;101251.72;;;12.05;100.00
33404;BME280;19751;40.274;18.268;2023-02-23T08:41:03;101253.88;;;12.10;100.00
33404;BME280;19751;40.274;18.268;2023-02-23T08:43:30;101252.09;;;12.17;100.00
33404;BME280;19751;40.274;18.268;2023-02-23T08:45:56;101251.53;;;12.22;100.00
33404;BME280;19751;40.274;18.268;2023-02-23T08:48:21;101252.00;;;12.25;100.00
33404;BME280;19751;40.274;18.268;2023-02-23T08:50:48;101246.50;;;12.33;100.00
33404;BME280;19751;40.274;18.268;2023-02-23T08:53:15;101253.00;;;12.39;100.00
33404;BME280;19751;40.274;18.268;2023-02-23T08:55:41;101246.03;;;12.44;100.00
33404;BME280;19751;40.274;18.268;2023-02-23T08:58:10;101257.09;;;12.50;100.00
33404;BME280;19751;40.274;18.268;2023-02-23T09:00:36;101255.31;;;12.57;100.00
33404;BME280;19751;40.274;18.268;2023-02-23T09:03:03;101257.03;;;12.64;100.00
33404;BME280;19751;40.274;18.268;2023-02-23T09:05:30;101257.78;;;12.73;100.00
33404;BME280;19751;40.274;18.268;2023-02-23T09:07:56;101258.88;;;12.79;100.00
33404;BME280;19751;40.274;18.268;2023-02-23T09:10:21;101255.22;;;12.86;100.00
33404;BME280;19751;40.274;18.268;2023-02-23T09:12:53;101256.09;;;12.93;100.00
33404;BME280;19751;40.274;18.268;2023-02-23T09:15:19;101259.72;;;13.01;100.00
33404;BME280;19751;40.274;18.268;2023-02-23T09:17:45;101262.88;;;13.04;100.00
33404;BME280;19751;40.274;18.268;2023-02-23T09:20:13;101265.25;;;13.14;100.00
33404;BME280;19751;40.274;18.268;2023-02-23T09:22:40;101264.88;;;13.17;100.00
33404;BME280;19751;40.274;18.268;2023-02-23T09:25:17;101262.84;;;13.19;100.00
33404;BME280;19751;40.274;18.268;2023-02-23T09:27:46;101267.47;;;13.25;100.00
33404;BME280;19751;40.274;18.268;2023-02-23T09:30:12;101262.31;;;13.30;100.00
33404;BME280;19751;40.274;18.268;2023-02-23T09:32:43;101257.38;;;13.34;100.00
33404;BME280;19751;40.274;18.268;2023-02-23T09:35:08;101252.41;;;13.37;100.00
33404;BME280;19751;40.274;18.268;2023-02-23T09:37:34;101250.97;;;13.41;100.00
33404;BME280;19751;40.274;18.268;2023-02-23T09:39:59;101252.84;;;13.41;100.00
33404;BME280;19751;40.274;18.268;2023-02-23T09:42:40;101252.66;;;13.42;100.00
33404;BME280;19751;40.274;18.268;2023-02-23T09:45:21;101250.38;;;13.46;100.00
33404;BME280;19751;40.274;18.268;2023-02-23T09:50:30;101256.72;;;13.60;100.00
33404;BME280;19751;40.274;18.268;2023-02-23T09:52:59;101247.63;;;13.67;100.00
33404;BME280;19751;40.274;18.268;2023-02-23T09:55:28;101241.44;;;13.74;100.00
33404;BME280;19751;40.274;18.268;2023-02-23T09:57:57;101246.88;;;13.80;100.00
33404;BME280;19751;40.274;18.268;2023-02-23T10:00:29;101245.06;;;13.87;100.00
33404;BME280;19751;40.274;18.268;2023-02-23T10:05:46;101242.34;;;13.87;100.00
33404;BME280;19751;40.274;18.268;2023-02-23T10:08:27;101239.25;;;13.90;100.00
33404;BME280;19751;40.274;18.268;2023-02-23T10:16:59;101244.19;;;14.15;100.00
33404;BME280;19751;40.274;18.268;2023-02-23T10:19:34;101239.63;;;14.22;100.00
33404;BME280;19751;40.274;18.268;2023-02-23T10:22:04;101240.25;;;14.24;100.00
33404;BME280;19751;40.274;18.268;2023-02-23T10:24:40;101242.38;;;14.29;100.00
33404;BME280;19751;40.274;18.268;2023-02-23T10:27:11;101243.63;;;14.33;100.00
33404;BME280;19751;40.274;18.268;2023-02-23T10:29:42;101233.22;;;14.36;100.00
33404;BME280;19751;40.274;18.268;2023-02-23T10:32:39;101235.94;;;14.36;100.00
33404;BME280;19751;40.274;18.268;2023-02-23T10:35:26;101230.53;;;14.36;100.00
33404;BME280;19751;40.274;18.268;2023-02-23T10:37:53;101230.31;;;14.38;100.00
33404;BME280;19751;40.274;18.268;2023-02-23T10:40:22;101234.69;;;14.39;100.00
33404;BME280;19751;40.274;18.268;2023-02-23T10:42:52;101233.63;;;14.33;100.00
33404;BME280;19751;40.274;18.268;2023-02-23T10:45:21;101233.41;;;14.28;100.00
33404;BME280;19751;40.274;18.268;2023-02-23T10:48:06;101238.00;;;14.28;100.00
33404;BME280;19751;40.274;18.268;2023-02-23T10:50:32;101236.31;;;14.27;100.00
33404;BME280;19751;40.274;18.268;2023-02-23T10:55:45;101244.63;;;14.18;100.00
33404;BME280;19751;40.274;18.268;2023-02-23T10:58:15;101241.66;;;14.13;100.00
33404;BME280;19751;40.274;18.268;2023-02-23T11:00:59;101237.06;;;14.07;100.00
33404;BME280;19751;40.274;18.268;2023-02-23T11:03:32;101233.28;;;14.02;100.00
33404;BME280;19751;40.274;18.268;2023-02-23T11:06:00;101235.72;;;13.97;100.00
33404;BME280;19751;40.274;18.268;2023-02-23T11:08:34;101235.72;;;13.90;100.00
33404;BME280;19751;40.274;18.268;2023-02-23T11:11:01;101232.97;;;13.83;100.00
33404;BME280;19751;40.274;18.268;2023-02-23T11:13:39;101228.13;;;13.79;100.00
33404;BME280;19751;40.274;18.268;2023-02-23T11:16:25;101226.47;;;13.78;100.00
33404;BME280;19751;40.274;18.268;2023-02-23T11:19:01;101232.50;;;13.73;100.00
33404;BME280;19751;40.274;18.268;2023-02-23T11:21:36;101220.78;;;13.66;100.00
33404;BME280;19751;40.274;18.268;2023-02-23T11:26:42;101227.59;;;13.62;100.00
33404;BME280;19751;40.274;18.268;2023-02-23T11:29:31;101221.81;;;13.65;100.00
33404;BME280;19751;40.274;18.268;2023-02-23T11:32:03;101217.84;;;13.67;100.00
33404;BME280;19751;40.274;18.268;2023-02-23T11:34:35;101217.66;;;13.69;100.00
33404;BME280;19751;40.274;18.268;2023-02-23T11:37:20;101223.50;;;13.73;100.00
33404;BME280;19751;40.274;18.268;2023-02-23T11:42:21;101216.47;;;13.78;100.00
33404;BME280;19751;40.274;18.268;2023-02-23T11:45:10;101217.09;;;13.80;100.00
33404;BME280;19751;40.274;18.268;2023-02-23T11:47:40;101206.91;;;13.82;100.00
33404;BME280;19751;40.274;18.268;2023-02-23T11:50:20;101209.81;;;13.81;100.00
33404;BME280;19751;40.274;18.268;2023-02-23T11:55:37;101205.66;;;13.78;100.00
33404;BME280;19751;40.274;18.268;2023-02-23T11:58:36;101204.81;;;13.78;100.00
33404;BME280;19751;40.274;18.268;2023-02-23T12:01:08;101197.69;;;13.77;100.00
33404;BME280;19751;40.274;18.268;2023-02-23T12:03:56;101196.88;;;13.76;100.00
33404;BME280;19751;40.274;18.268;2023-02-23T12:06:39;101195.84;;;13.77;100.00
33404;BME280;19751;40.274;18.268;2023-02-23T12:09:09;101187.91;;;13.76;100.00
33404;BME280;19751;40.274;18.268;2023-02-23T12:11:49;101193.53;;;13.74;100.00
33404;BME280;19751;40.274;18.268;2023-02-23T12:17:13;101201.00;;;13.72;100.00
33404;BME280;19751;40.274;18.268;2023-02-23T12:19:45;101193.09;;;13.71;100.00
33404;BME280;19751;40.274;18.268;2023-02-23T12:22:13;101191.22;;;13.71;100.00
33404;BME280;19751;40.274;18.268;2023-02-23T12:24:47;101192.06;;;13.72;100.00
33404;BME280;19751;40.274;18.268;2023-02-23T12:27:19;101197.69;;;13.70;100.00
33404;BME280;19751;40.274;18.268;2023-02-23T12:29:58;101196.84;;;13.70;100.00
33404;BME280;19751;40.274;18.268;2023-02-23T12:40:25;101185.81;;;13.71;100.00
33404;BME280;19751;40.274;18.268;2023-02-23T12:43:13;101181.44;;;13.70;100.00
33404;BME280;19751;40.274;18.268;2023-02-23T12:45:49;101177.06;;;13.69;100.00
33404;BME280;19751;40.274;18.268;2023-02-23T12:48:40;101178.94;;;13.68;100.00
33404;BME280;19751;40.274;18.268;2023-02-23T12:53:54;101180.78;;;13.68;100.00
33404;BME280;19751;40.274;18.268;2023-02-23T13:01:58;101181.22;;;13.72;100.00
33404;BME280;19751;40.274;18.268;2023-02-23T13:04:59;101180.19;;;13.73;100.00
33404;BME280;19751;40.274;18.268;2023-02-23T13:08:05;101175.41;;;13.75;100.00
33404;BME280;19751;40.274;18.268;2023-02-23T13:16:33;101170.28;;;13.86;100.00
33404;BME280;19751;40.274;18.268;2023-02-23T13:19:12;101163.44;;;13.90;100.00
33404;BME280;19751;40.274;18.268;2023-02-23T13:21:48;101165.31;;;13.97;100.00
33404;BME280;19751;40.274;18.268;2023-02-23T13:24:21;101159.28;;;14.01;100.00
33404;BME280;19751;40.274;18.268;2023-02-23T13:27:11;101160.78;;;14.04;100.00
33404;BME280;19751;40.274;18.268;2023-02-23T13:32:12;101165.59;;;14.08;100.00
33404;BME280;19751;40.274;18.268;2023-02-23T13:34:48;101170.59;;;14.11;100.00
33404;BME280;19751;40.274;18.268;2023-02-23T13:37:20;101168.50;;;14.13;100.00
33404;BME280;19751;40.274;18.268;2023-02-23T13:40:00;101165.81;;;14.13;100.00
33404;BME280;19751;40.274;18.268;2023-02-23T13:45:35;101152.91;;;14.22;100.00
33404;BME280;19751;40.274;18.268;2023-02-23T13:53:43;101155.88;;;14.34;100.00
33404;BME280;19751;40.274;18.268;2023-02-23T13:58:45;101153.63;;;14.44;100.00
33404;BME280;19751;40.274;18.268;2023-02-23T14:01:29;101152.41;;;14.53;100.00
33404;BME280;19751;40.274;18.268;2023-02-23T14:04:04;101150.13;;;14.63;100.00
33404;BME280;19751;40.274;18.268;2023-02-23T14:06:33;101148.28;;;14.71;100.00
33404;BME280;19751;40.274;18.268;2023-02-23T14:09:20;101157.69;;;14.81;100.00
33404;BME280;19751;40.274;18.268;2023-02-23T14:11:51;101156.22;;;14.85;100.00
33404;BME280;19751;40.274;18.268;2023-02-23T14:22:34;101161.84;;;14.77;100.00
33404;BME280;19751;40.274;18.268;2023-02-23T14:28:02;101159.75;;;14.66;100.00
33404;BME280;19751;40.274;18.268;2023-02-23T14:30:49;101164.75;;;14.69;100.00
33404;BME280;19751;40.274;18.268;2023-02-23T14:41:23;101164.97;;;14.87;100.00
33404;BME280;19751;40.274;18.268;2023-02-23T14:43:57;101167.28;;;15.04;100.00
33404;BME280;19751;40.274;18.268;2023-02-23T14:46:24;101165.00;;;15.07;100.00
33404;BME280;19751;40.274;18.268;2023-02-23T14:48:59;101163.09;;;15.08;100.00